Flight Track Log - Related Links

Times and Time Zones

All times are in EST time to prevent confusion due to time zone crossing. See the USC3802 flight status page for this flight to view local times or setup timezone preferences in your user account.

Time Position Orientation Groundspeed Altitude Reporting Facility
EST Latitude Longitude Course Direction KTS MPH feet Rate Location/Type
Thu 08:37:20 AM 37.6608 -97.4206 22° Northeast 88 101 1,800  Level Kansas City Center
Thu 08:38:45 AM 37.6944 -97.4036 31° Northeast 99 114 3,800 1,274 Climbing Kansas City Center
Thu 08:39:46 AM 37.7242 -97.3811 35° Northeast 119 137 4,900 1,091 Climbing Kansas City Center
Thu 08:40:46 AM 37.7497 -97.3583 25° Northeast 111 128 6,000 992 Climbing Kansas City Center
Thu 08:41:47 AM 37.7794 -97.3411 16° North 113 130 6,900 492 Climbing Kansas City Center
Thu 08:42:48 AM 37.8131 -97.3292 12° North 140 161 7,000 50 Climbing Kansas City Center
Thu 08:43:48 AM 37.8550 -97.3175 16° North 153 176 7,000  Level Kansas City Center
Thu 08:44:20 AM 37.8803 -97.3081 15° North 170 196 7,000  Level Kansas City Center
Thu 08:46:20 AM 37.9644 -97.2797 19° North 165 190 7,000  Level Kansas City Center
Thu 08:47:20 AM 38.0086 -97.2603 19° North 160 184 7,000  Level Kansas City Center
Thu 08:49:20 AM 38.0972 -97.2211 18° North 160 184 7,000  Level Kansas City Center
Thu 08:50:20 AM 38.1392 -97.2042 13° North 160 184 7,000  Level Kansas City Center
Thu 08:51:20 AM 38.1856 -97.1900 20° North 166 191 7,000  Level Kansas City Center
Thu 08:52:20 AM 38.2275 -97.1706 16° North 166 191 7,000  Level Kansas City Center
Thu 08:53:20 AM 38.2739 -97.1536 18° North 166 191 7,000  Level Kansas City Center
Thu 08:54:20 AM 38.3203 -97.1342 19° North 166 191 7,000  Level Kansas City Center
Thu 08:55:20 AM 38.3664 -97.1144 17° North 166 191 7,000  Level Kansas City Center
Thu 08:56:20 AM 38.4106 -97.0975 17° North 166 191 7,000 50 Level Kansas City Center
Thu 08:57:20 AM 38.4547 -97.0806 16° North 172 198 7,100 50 Climbing Kansas City Center
Thu 08:58:20 AM 38.5011 -97.0636 18° North 172 198 7,100  Level Kansas City Center
Thu 08:59:20 AM 38.5536 -97.0414 17° North 167 192 7,100  Level Kansas City Center
Thu 09:01:20 AM 38.6483 -97.0050 16° North 167 192 7,100  Level Kansas City Center
Thu 09:02:20 AM 38.6944 -96.9878 18° North 167 192 7,100  Level Kansas City Center
Thu 09:03:20 AM 38.7492 -96.9656 17° North 173 199 7,100  Level Kansas City Center
Thu 09:04:20 AM 38.7994 -96.9461 17° North 183 211 7,100  Level Kansas City Center
Thu 09:05:20 AM 38.8500 -96.9264 18° North 183 211 7,100  Level Kansas City Center
Thu 09:06:20 AM 38.8964 -96.9067 20° North 183 211 7,100  Level Kansas City Center
Thu 09:07:20 AM 38.9447 -96.8842 17° North 183 211 7,100  Level Kansas City Center
Thu 09:08:20 AM 39.0014 -96.8619 17° North 188 216 7,100  Level Kansas City Center
Thu 09:09:20 AM 39.0517 -96.8422 19° North 188 216 7,100  Level Kansas City Center
Thu 09:10:20 AM 39.0958 -96.8222 15° North 188 216 7,100  Level Kansas City Center
Thu 09:11:20 AM 39.1525 -96.8025 18° North 188 216 7,100  Level Kansas City Center
Thu 09:12:20 AM 39.1989 -96.7828 17° North 188 216 7,100  Level Kansas City Center
Thu 09:13:20 AM 39.2492 -96.7628 18° North 188 216 7,100  Level Kansas City Center
Thu 09:14:20 AM 39.3039 -96.7403 17° North 188 216 7,100  Level Kansas City Center
Thu 09:15:20 AM 39.3542 -96.7206 20° North 188 216 7,100  Level Kansas City Center
Thu 09:16:20 AM 39.3983 -96.7003 18° North 188 216 7,100  Level Kansas City Center
Thu 09:17:20 AM 39.4467 -96.6803 16° North 188 216 7,100  Level Kansas City Center
Thu 09:18:20 AM 39.4992 -96.6603 21° North 188 216 7,100  Level Kansas City Center
Thu 09:19:20 AM 39.5456 -96.6375 19° North 183 211 7,100  Level Kansas City Center
Thu 09:20:20 AM 39.5958 -96.6147 18° North 183 211 7,100  Level Kansas City Center
Thu 09:21:20 AM 39.6378 -96.5972 16° North 183 211 7,100  Level Kansas City Center
Thu 09:22:20 AM 39.6861 -96.5797 17° North 183 211 7,100  Level Kansas City Center
Thu 09:24:22 AM 39.7811 -96.5414 19° North 181 208 7,100  Level Minneapolis Center
Thu 09:25:22 AM 39.8297 -96.5194 20° North 181 208 7,100  Level Minneapolis Center
Thu 09:26:22 AM 39.8761 -96.4975 17° North 181 208 7,100  Level Minneapolis Center
Thu 09:27:22 AM 39.9244 -96.4781 19° North 176 203 7,100  Level Minneapolis Center
Thu 09:28:22 AM 39.9728 -96.4561 18° North 176 203 7,100  Level Minneapolis Center
Thu 09:29:22 AM 40.0192 -96.4367 18° North 171 197 7,100  Level Minneapolis Center
Thu 09:30:23 AM 40.0653 -96.4172 15° North 171 197 7,100  Level Minneapolis Center
Thu 09:31:22 AM 40.1136 -96.4006 18° North 171 197 7,100  Level Minneapolis Center
Thu 09:33:23 AM 40.2083 -96.3614 18° North 171 197 7,100  Level Minneapolis Center
Thu 09:34:22 AM 40.2544 -96.3419 19° North 171 197 7,100  Level Minneapolis Center
Thu 09:35:22 AM 40.3031 -96.3197 38° Northeast 171 197 7,100  Level Minneapolis Center
Thu 09:36:03 AM 40.3308 -96.2911 19° North 176 203 7,100  Level Minneapolis Center
Thu 09:37:03 AM 40.3811 -96.2689 20° North 175 201 7,100  Level Minneapolis Center
Thu 09:38:04 AM 40.4233 -96.2489 North 174 200 7,100  Level Minneapolis Center
Thu 09:39:22 AM 40.4858 -96.2408 21° North 171 197 7,100  Level Minneapolis Center
Thu 09:40:22 AM 40.5303 -96.2183 43° Northeast 171 197 7,100  Level Minneapolis Center
Thu 09:41:06 AM 40.5625 -96.1789 16° North 177 204 7,100  Level Minneapolis Center
Thu 09:42:22 AM 40.6150 -96.1592 35° Northeast 171 197 7,100  Level Minneapolis Center
Thu 09:43:07 AM 40.6489 -96.1281 20° North 171 197 7,100  Level Minneapolis Center
Thu 09:44:07 AM 40.6953 -96.1053 20° North 170 196 7,100  Level Minneapolis Center
Thu 09:45:08 AM 40.7375 -96.0853 18° North 169 194 7,100  Level Minneapolis Center
Thu 09:46:09 AM 40.7836 -96.0653 24° Northeast 167 192 7,100  Level Minneapolis Center
Thu 09:47:09 AM 40.8281 -96.0397 22° Northeast 167 192 7,100  Level Minneapolis Center
Thu 09:48:10 AM 40.8700 -96.0169 25° Northeast 170 196 7,100 -472 Level Minneapolis Center
Thu 09:49:16 AM 40.9208 -95.9861 23° Northeast 185 213 6,100 -992 Descending Minneapolis Center
Thu 09:50:11 AM 40.9669 -95.9606 23° Northeast 197 227 5,100 -983 Descending Minneapolis Center
Thu 09:51:12 AM 41.0133 -95.9347 23° Northeast 183 211 4,200 -543 Descending Minneapolis Center
Thu 09:53:19 AM 41.1083 -95.8808 North 176 203 3,400 -605 Descending Minneapolis Center
Thu 09:55:20 AM 41.2044 -95.8653 356° North 163 188 1,700 -543 Descending Minneapolis Center
Thu 09:56:27 AM 41.2500 -95.8700 356° North 146 168 1,700  Level Minneapolis Center

Login

Don't have an account? Register now (free) for customized features, flight alerts, and more!